sensor_id;sensor_type;location;lat;lon;timestamp;P1;durP1;ratioP1;P2;durP2;ratioP2
71462;SDS011;59266;52.608;13.260;2023-12-07T00:00:36;42.15;;;14.57;;
71462;SDS011;59266;52.608;13.260;2023-12-07T00:03:02;41.13;;;13.88;;
71462;SDS011;59266;52.608;13.260;2023-12-07T00:05:29;41.58;;;14.55;;
71462;SDS011;59266;52.608;13.260;2023-12-07T00:07:55;41.85;;;15.30;;
71462;SDS011;59266;52.608;13.260;2023-12-07T00:10:22;38.35;;;13.20;;
71462;SDS011;59266;52.608;13.260;2023-12-07T00:12:49;43.10;;;14.05;;
71462;SDS011;59266;52.608;13.260;2023-12-07T00:15:15;41.15;;;14.20;;
71462;SDS011;59266;52.608;13.260;2023-12-07T00:17:42;45.20;;;14.98;;
71462;SDS011;59266;52.608;13.260;2023-12-07T00:20:09;44.95;;;14.70;;
71462;SDS011;59266;52.608;13.260;2023-12-07T00:22:36;38.90;;;14.65;;
71462;SDS011;59266;52.608;13.260;2023-12-07T00:25:05;37.63;;;13.68;;
71462;SDS011;59266;52.608;13.260;2023-12-07T00:27:32;40.67;;;14.25;;
71462;SDS011;59266;52.608;13.260;2023-12-07T00:30:04;40.75;;;13.95;;
71462;SDS011;59266;52.608;13.260;2023-12-07T00:32:31;41.45;;;13.63;;
71462;SDS011;59266;52.608;13.260;2023-12-07T00:34:57;44.50;;;14.32;;
71462;SDS011;59266;52.608;13.260;2023-12-07T00:37:24;41.65;;;13.45;;
71462;SDS011;59266;52.608;13.260;2023-12-07T00:39:51;50.30;;;14.05;;
71462;SDS011;59266;52.608;13.260;2023-12-07T00:42:18;42.30;;;14.48;;
71462;SDS011;59266;52.608;13.260;2023-12-07T00:44:45;43.72;;;13.50;;
71462;SDS011;59266;52.608;13.260;2023-12-07T00:47:12;48.95;;;14.52;;
71462;SDS011;59266;52.608;13.260;2023-12-07T00:49:38;40.38;;;13.48;;
71462;SDS011;59266;52.608;13.260;2023-12-07T00:52:13;37.03;;;13.13;;
71462;SDS011;59266;52.608;13.260;2023-12-07T00:54:40;39.75;;;13.15;;
71462;SDS011;59266;52.608;13.260;2023-12-07T00:57:06;45.65;;;13.40;;
71462;SDS011;59266;52.608;13.260;2023-12-07T00:59:36;43.65;;;14.73;;
71462;SDS011;59266;52.608;13.260;2023-12-07T01:02:06;43.70;;;14.25;;
71462;SDS011;59266;52.608;13.260;2023-12-07T01:04:33;39.50;;;13.55;;
71462;SDS011;59266;52.608;13.260;2023-12-07T01:07:00;46.15;;;14.85;;
71462;SDS011;59266;52.608;13.260;2023-12-07T01:09:28;42.63;;;14.05;;
71462;SDS011;59266;52.608;13.260;2023-12-07T01:11:54;41.20;;;14.35;;
71462;SDS011;59266;52.608;13.260;2023-12-07T01:14:21;43.20;;;13.77;;
71462;SDS011;59266;52.608;13.260;2023-12-07T01:16:47;41.38;;;13.93;;
71462;SDS011;59266;52.608;13.260;2023-12-07T01:19:16;38.97;;;12.65;;
71462;SDS011;59266;52.608;13.260;2023-12-07T01:21:43;50.55;;;15.43;;
71462;SDS011;59266;52.608;13.260;2023-12-07T01:24:09;43.45;;;14.43;;
71462;SDS011;59266;52.608;13.260;2023-12-07T01:26:41;41.53;;;13.93;;
71462;SDS011;59266;52.608;13.260;2023-12-07T01:29:11;38.63;;;14.00;;
71462;SDS011;59266;52.608;13.260;2023-12-07T01:31:38;34.17;;;12.57;;
71462;SDS011;59266;52.608;13.260;2023-12-07T01:34:04;40.15;;;13.80;;
71462;SDS011;59266;52.608;13.260;2023-12-07T01:36:31;44.45;;;15.23;;
71462;SDS011;59266;52.608;13.260;2023-12-07T01:38:58;38.88;;;13.18;;
71462;SDS011;59266;52.608;13.260;2023-12-07T01:41:24;38.42;;;14.60;;
71462;SDS011;59266;52.608;13.260;2023-12-07T01:43:51;40.38;;;14.27;;
71462;SDS011;59266;52.608;13.260;2023-12-07T01:46:18;39.00;;;14.13;;
71462;SDS011;59266;52.608;13.260;2023-12-07T01:48:44;45.80;;;14.80;;
71462;SDS011;59266;52.608;13.260;2023-12-07T01:51:24;44.05;;;14.07;;
71462;SDS011;59266;52.608;13.260;2023-12-07T01:53:51;42.70;;;13.88;;
71462;SDS011;59266;52.608;13.260;2023-12-07T01:56:18;44.00;;;14.43;;
71462;SDS011;59266;52.608;13.260;2023-12-07T01:58:45;44.20;;;15.15;;
71462;SDS011;59266;52.608;13.260;2023-12-07T02:01:12;45.50;;;15.05;;
71462;SDS011;59266;52.608;13.260;2023-12-07T02:03:39;54.28;;;15.13;;
71462;SDS011;59266;52.608;13.260;2023-12-07T02:06:07;49.55;;;14.63;;
71462;SDS011;59266;52.608;13.260;2023-12-07T02:08:35;46.28;;;15.40;;
71462;SDS011;59266;52.608;13.260;2023-12-07T02:11:01;52.28;;;15.07;;
71462;SDS011;59266;52.608;13.260;2023-12-07T02:13:28;52.17;;;14.95;;
71462;SDS011;59266;52.608;13.260;2023-12-07T02:15:55;48.38;;;15.20;;
71462;SDS011;59266;52.608;13.260;2023-12-07T02:21:13;52.08;;;14.85;;
71462;SDS011;59266;52.608;13.260;2023-12-07T02:23:46;50.35;;;15.15;;
71462;SDS011;59266;52.608;13.260;2023-12-07T02:26:18;47.72;;;14.98;;
71462;SDS011;59266;52.608;13.260;2023-12-07T02:28:46;53.63;;;15.30;;
71462;SDS011;59266;52.608;13.260;2023-12-07T02:31:13;57.30;;;15.88;;
71462;SDS011;59266;52.608;13.260;2023-12-07T02:33:39;52.47;;;15.10;;
71462;SDS011;59266;52.608;13.260;2023-12-07T02:36:06;50.00;;;15.73;;
71462;SDS011;59266;52.608;13.260;2023-12-07T02:38:33;56.05;;;15.50;;
71462;SDS011;59266;52.608;13.260;2023-12-07T02:41:01;58.30;;;15.93;;
71462;SDS011;59266;52.608;13.260;2023-12-07T02:43:28;62.03;;;15.85;;
71462;SDS011;59266;52.608;13.260;2023-12-07T02:45:55;54.67;;;15.38;;
71462;SDS011;59266;52.608;13.260;2023-12-07T02:48:21;64.78;;;15.82;;
71462;SDS011;59266;52.608;13.260;2023-12-07T02:53:53;49.95;;;14.32;;
71462;SDS011;59266;52.608;13.260;2023-12-07T02:56:19;54.70;;;15.05;;
71462;SDS011;59266;52.608;13.260;2023-12-07T02:58:46;57.88;;;14.60;;
71462;SDS011;59266;52.608;13.260;2023-12-07T03:01:12;56.10;;;15.80;;
71462;SDS011;59266;52.608;13.260;2023-12-07T03:03:39;69.25;;;16.00;;
71462;SDS011;59266;52.608;13.260;2023-12-07T03:06:08;58.70;;;15.30;;
71462;SDS011;59266;52.608;13.260;2023-12-07T03:08:35;60.40;;;15.75;;
71462;SDS011;59266;52.608;13.260;2023-12-07T03:11:01;61.92;;;16.40;;
71462;SDS011;59266;52.608;13.260;2023-12-07T03:13:28;52.22;;;15.73;;
71462;SDS011;59266;52.608;13.260;2023-12-07T03:15:54;60.03;;;15.82;;
71462;SDS011;59266;52.608;13.260;2023-12-07T03:18:21;57.60;;;15.85;;
71462;SDS011;59266;52.608;13.260;2023-12-07T03:24:37;46.00;;;14.55;;
71462;SDS011;59266;52.608;13.260;2023-12-07T03:27:04;47.03;;;14.52;;
71462;SDS011;59266;52.608;13.260;2023-12-07T03:29:31;48.83;;;14.70;;
71462;SDS011;59266;52.608;13.260;2023-12-07T03:31:58;43.83;;;15.50;;
71462;SDS011;59266;52.608;13.260;2023-12-07T03:34:24;46.63;;;14.43;;
71462;SDS011;59266;52.608;13.260;2023-12-07T03:36:51;50.65;;;14.90;;
71462;SDS011;59266;52.608;13.260;2023-12-07T03:39:18;45.88;;;14.55;;
71462;SDS011;59266;52.608;13.260;2023-12-07T03:41:45;44.58;;;14.38;;
71462;SDS011;59266;52.608;13.260;2023-12-07T03:44:11;41.97;;;13.98;;
71462;SDS011;59266;52.608;13.260;2023-12-07T03:46:38;47.50;;;15.00;;
71462;SDS011;59266;52.608;13.260;2023-12-07T03:49:05;53.08;;;14.75;;
71462;SDS011;59266;52.608;13.260;2023-12-07T03:51:32;53.63;;;14.70;;
71462;SDS011;59266;52.608;13.260;2023-12-07T03:54:00;51.22;;;14.85;;
71462;SDS011;59266;52.608;13.260;2023-12-07T03:56:32;44.47;;;14.27;;
71462;SDS011;59266;52.608;13.260;2023-12-07T03:59:00;51.13;;;14.45;;
71462;SDS011;59266;52.608;13.260;2023-12-07T04:01:28;48.55;;;15.20;;
71462;SDS011;59266;52.608;13.260;2023-12-07T04:03:56;52.85;;;15.02;;
71462;SDS011;59266;52.608;13.260;2023-12-07T04:06:23;58.78;;;14.95;;
71462;SDS011;59266;52.608;13.260;2023-12-07T04:08:50;59.78;;;16.10;;
71462;SDS011;59266;52.608;13.260;2023-12-07T04:11:17;51.13;;;14.88;;
71462;SDS011;59266;52.608;13.260;2023-12-07T04:13:44;56.25;;;15.85;;
71462;SDS011;59266;52.608;13.260;2023-12-07T04:16:11;50.30;;;13.93;;
71462;SDS011;59266;52.608;13.260;2023-12-07T04:18:38;54.28;;;15.43;;
71462;SDS011;59266;52.608;13.260;2023-12-07T04:21:13;63.28;;;16.05;;
71462;SDS011;59266;52.608;13.260;2023-12-07T04:23:40;55.13;;;14.27;;
71462;SDS011;59266;52.608;13.260;2023-12-07T04:26:08;49.28;;;15.07;;
71462;SDS011;59266;52.608;13.260;2023-12-07T04:28:34;55.95;;;13.93;;
71462;SDS011;59266;52.608;13.260;2023-12-07T04:31:01;53.35;;;14.20;;
71462;SDS011;59266;52.608;13.260;2023-12-07T04:33:28;57.65;;;15.15;;
71462;SDS011;59266;52.608;13.260;2023-12-07T04:35:54;52.78;;;13.73;;
71462;SDS011;59266;52.608;13.260;2023-12-07T04:38:21;65.88;;;15.98;;
71462;SDS011;59266;52.608;13.260;2023-12-07T04:40:48;57.65;;;14.43;;
71462;SDS011;59266;52.608;13.260;2023-12-07T04:43:14;65.60;;;15.98;;
71462;SDS011;59266;52.608;13.260;2023-12-07T04:45:41;55.63;;;14.52;;
71462;SDS011;59266;52.608;13.260;2023-12-07T04:48:08;49.45;;;14.85;;
71462;SDS011;59266;52.608;13.260;2023-12-07T04:50:34;54.67;;;14.15;;
71462;SDS011;59266;52.608;13.260;2023-12-07T04:53:02;52.20;;;14.57;;
71462;SDS011;59266;52.608;13.260;2023-12-07T04:55:29;53.05;;;14.20;;
71462;SDS011;59266;52.608;13.260;2023-12-07T04:57:57;51.50;;;15.43;;
71462;SDS011;59266;52.608;13.260;2023-12-07T05:00:24;47.58;;;14.43;;
71462;SDS011;59266;52.608;13.260;2023-12-07T05:02:51;58.90;;;15.85;;
71462;SDS011;59266;52.608;13.260;2023-12-07T05:05:17;57.97;;;15.13;;
71462;SDS011;59266;52.608;13.260;2023-12-07T05:07:44;66.38;;;15.65;;
71462;SDS011;59266;52.608;13.260;2023-12-07T05:10:13;52.45;;;15.07;;
71462;SDS011;59266;52.608;13.260;2023-12-07T05:12:39;60.13;;;15.07;;
71462;SDS011;59266;52.608;13.260;2023-12-07T05:15:06;52.50;;;14.70;;
71462;SDS011;59266;52.608;13.260;2023-12-07T05:17:33;62.78;;;15.63;;
71462;SDS011;59266;52.608;13.260;2023-12-07T05:20:00;55.72;;;16.25;;
71462;SDS011;59266;52.608;13.260;2023-12-07T05:22:26;51.47;;;15.50;;
71462;SDS011;59266;52.608;13.260;2023-12-07T05:24:54;48.50;;;13.38;;
71462;SDS011;59266;52.608;13.260;2023-12-07T05:27:20;53.03;;;15.48;;
71462;SDS011;59266;52.608;13.260;2023-12-07T05:29:47;54.05;;;14.75;;
71462;SDS011;59266;52.608;13.260;2023-12-07T05:32:14;57.38;;;15.18;;
71462;SDS011;59266;52.608;13.260;2023-12-07T05:34:42;57.65;;;14.98;;
71462;SDS011;59266;52.608;13.260;2023-12-07T05:37:08;54.08;;;13.95;;
71462;SDS011;59266;52.608;13.260;2023-12-07T05:39:35;52.05;;;14.38;;
71462;SDS011;59266;52.608;13.260;2023-12-07T05:42:02;50.85;;;15.77;;
71462;SDS011;59266;52.608;13.260;2023-12-07T05:44:30;52.60;;;14.43;;
71462;SDS011;59266;52.608;13.260;2023-12-07T05:46:57;72.03;;;14.98;;
71462;SDS011;59266;52.608;13.260;2023-12-07T05:49:23;55.50;;;15.48;;
71462;SDS011;59266;52.608;13.260;2023-12-07T05:51:51;57.72;;;14.88;;
71462;SDS011;59266;52.608;13.260;2023-12-07T05:54:19;53.60;;;14.43;;
71462;SDS011;59266;52.608;13.260;2023-12-07T05:56:48;53.72;;;14.18;;
71462;SDS011;59266;52.608;13.260;2023-12-07T05:59:15;43.28;;;12.93;;
71462;SDS011;59266;52.608;13.260;2023-12-07T06:01:41;42.17;;;13.20;;
71462;SDS011;59266;52.608;13.260;2023-12-07T06:04:09;51.50;;;13.73;;
71462;SDS011;59266;52.608;13.260;2023-12-07T06:06:36;50.28;;;14.88;;
71462;SDS011;59266;52.608;13.260;2023-12-07T06:09:03;52.45;;;13.70;;
71462;SDS011;59266;52.608;13.260;2023-12-07T06:11:32;45.05;;;13.05;;
71462;SDS011;59266;52.608;13.260;2023-12-07T06:13:59;45.53;;;13.25;;
71462;SDS011;59266;52.608;13.260;2023-12-07T06:16:29;45.55;;;13.07;;
71462;SDS011;59266;52.608;13.260;2023-12-07T06:18:56;47.00;;;13.57;;
71462;SDS011;59266;52.608;13.260;2023-12-07T06:24:44;55.95;;;13.82;;
71462;SDS011;59266;52.608;13.260;2023-12-07T06:27:11;48.75;;;14.38;;
71462;SDS011;59266;52.608;13.260;2023-12-07T06:29:38;51.78;;;13.48;;
71462;SDS011;59266;52.608;13.260;2023-12-07T06:32:06;51.72;;;14.60;;
71462;SDS011;59266;52.608;13.260;2023-12-07T06:34:32;53.90;;;14.63;;
71462;SDS011;59266;52.608;13.260;2023-12-07T06:37:01;50.97;;;14.10;;
71462;SDS011;59266;52.608;13.260;2023-12-07T06:39:28;52.10;;;14.50;;
71462;SDS011;59266;52.608;13.260;2023-12-07T06:41:54;63.05;;;15.95;;
71462;SDS011;59266;52.608;13.260;2023-12-07T06:44:21;62.67;;;14.65;;
71462;SDS011;59266;52.608;13.260;2023-12-07T06:46:48;63.58;;;14.98;;
71462;SDS011;59266;52.608;13.260;2023-12-07T06:49:15;65.05;;;15.73;;
71462;SDS011;59266;52.608;13.260;2023-12-07T06:51:42;68.40;;;15.68;;
71462;SDS011;59266;52.608;13.260;2023-12-07T06:54:08;58.45;;;15.68;;
71462;SDS011;59266;52.608;13.260;2023-12-07T06:56:35;61.85;;;15.88;;
71462;SDS011;59266;52.608;13.260;2023-12-07T06:59:02;57.22;;;14.45;;
71462;SDS011;59266;52.608;13.260;2023-12-07T07:01:28;52.33;;;14.27;;
71462;SDS011;59266;52.608;13.260;2023-12-07T07:03:56;52.63;;;15.70;;
71462;SDS011;59266;52.608;13.260;2023-12-07T07:06:23;46.10;;;14.48;;
71462;SDS011;59266;52.608;13.260;2023-12-07T07:08:50;75.18;;;15.93;;
71462;SDS011;59266;52.608;13.260;2023-12-07T07:11:16;73.30;;;16.75;;
71462;SDS011;59266;52.608;13.260;2023-12-07T07:13:43;61.80;;;16.08;;
71462;SDS011;59266;52.608;13.260;2023-12-07T07:16:10;46.08;;;13.30;;
71462;SDS011;59266;52.608;13.260;2023-12-07T07:18:40;58.33;;;14.85;;
71462;SDS011;59266;52.608;13.260;2023-12-07T07:21:08;66.93;;;15.98;;
71462;SDS011;59266;52.608;13.260;2023-12-07T07:23:38;60.22;;;15.30;;
71462;SDS011;59266;52.608;13.260;2023-12-07T07:26:05;57.90;;;14.65;;
71462;SDS011;59266;52.608;13.260;2023-12-07T07:28:31;50.92;;;14.20;;
71462;SDS011;59266;52.608;13.260;2023-12-07T07:30:58;53.72;;;13.60;;
71462;SDS011;59266;52.608;13.260;2023-12-07T07:33:25;69.93;;;15.20;;
71462;SDS011;59266;52.608;13.260;2023-12-07T07:35:52;43.50;;;12.98;;
71462;SDS011;59266;52.608;13.260;2023-12-07T07:38:21;63.83;;;15.55;;
71462;SDS011;59266;52.608;13.260;2023-12-07T07:40:47;58.05;;;14.13;;
71462;SDS011;59266;52.608;13.260;2023-12-07T07:43:15;59.25;;;15.13;;
71462;SDS011;59266;52.608;13.260;2023-12-07T07:45:41;61.33;;;13.73;;
71462;SDS011;59266;52.608;13.260;2023-12-07T07:48:09;50.35;;;14.15;;
71462;SDS011;59266;52.608;13.260;2023-12-07T07:57:03;54.22;;;14.73;;
71462;SDS011;59266;52.608;13.260;2023-12-07T07:59:31;52.10;;;15.07;;
71462;SDS011;59266;52.608;13.260;2023-12-07T08:01:57;58.90;;;14.25;;
71462;SDS011;59266;52.608;13.260;2023-12-07T08:04:24;52.22;;;13.70;;
71462;SDS011;59266;52.608;13.260;2023-12-07T08:06:51;56.45;;;15.30;;
71462;SDS011;59266;52.608;13.260;2023-12-07T08:09:17;41.50;;;12.68;;
71462;SDS011;59266;52.608;13.260;2023-12-07T08:11:44;55.53;;;15.38;;
71462;SDS011;59266;52.608;13.260;2023-12-07T08:14:11;56.55;;;16.38;;
71462;SDS011;59266;52.608;13.260;2023-12-07T08:16:37;53.88;;;14.60;;
71462;SDS011;59266;52.608;13.260;2023-12-07T08:19:04;55.65;;;14.57;;
71462;SDS011;59266;52.608;13.260;2023-12-07T08:21:31;57.45;;;15.70;;
71462;SDS011;59266;52.608;13.260;2023-12-07T08:23:57;55.08;;;15.38;;
71462;SDS011;59266;52.608;13.260;2023-12-07T08:26:24;58.47;;;15.23;;
71462;SDS011;59266;52.608;13.260;2023-12-07T08:28:51;46.60;;;13.80;;
71462;SDS011;59266;52.608;13.260;2023-12-07T08:31:20;55.45;;;15.27;;
71462;SDS011;59266;52.608;13.260;2023-12-07T08:33:52;49.60;;;14.77;;
71462;SDS011;59266;52.608;13.260;2023-12-07T08:36:19;50.17;;;14.75;;
71462;SDS011;59266;52.608;13.260;2023-12-07T08:38:46;49.72;;;15.70;;
71462;SDS011;59266;52.608;13.260;2023-12-07T08:41:12;46.78;;;15.52;;
71462;SDS011;59266;52.608;13.260;2023-12-07T08:43:40;52.45;;;14.95;;
71462;SDS011;59266;52.608;13.260;2023-12-07T08:46:07;42.97;;;15.38;;
71462;SDS011;59266;52.608;13.260;2023-12-07T08:48:33;43.42;;;14.32;;
71462;SDS011;59266;52.608;13.260;2023-12-07T08:51:08;45.22;;;14.82;;
71462;SDS011;59266;52.608;13.260;2023-12-07T08:53:35;49.28;;;14.25;;
71462;SDS011;59266;52.608;13.260;2023-12-07T08:56:02;46.22;;;15.25;;
71462;SDS011;59266;52.608;13.260;2023-12-07T08:58:28;43.92;;;14.20;;
71462;SDS011;59266;52.608;13.260;2023-12-07T09:00:55;49.97;;;13.63;;
71462;SDS011;59266;52.608;13.260;2023-12-07T09:03:22;47.75;;;15.00;;
71462;SDS011;59266;52.608;13.260;2023-12-07T09:05:54;39.53;;;13.25;;
71462;SDS011;59266;52.608;13.260;2023-12-07T09:08:20;49.08;;;14.75;;
71462;SDS011;59266;52.608;13.260;2023-12-07T09:10:47;40.80;;;14.90;;
71462;SDS011;59266;52.608;13.260;2023-12-07T09:13:16;46.78;;;14.70;;
71462;SDS011;59266;52.608;13.260;2023-12-07T09:15:43;45.67;;;13.65;;
71462;SDS011;59266;52.608;13.260;2023-12-07T09:18:10;50.65;;;14.55;;
71462;SDS011;59266;52.608;13.260;2023-12-07T09:20:41;40.22;;;13.50;;
71462;SDS011;59266;52.608;13.260;2023-12-07T09:23:12;44.10;;;14.15;;
71462;SDS011;59266;52.608;13.260;2023-12-07T09:25:39;40.85;;;13.57;;
71462;SDS011;59266;52.608;13.260;2023-12-07T09:28:07;39.03;;;13.45;;
71462;SDS011;59266;52.608;13.260;2023-12-07T09:30:34;43.95;;;14.52;;
71462;SDS011;59266;52.608;13.260;2023-12-07T09:33:01;44.75;;;13.20;;
71462;SDS011;59266;52.608;13.260;2023-12-07T09:35:30;47.65;;;14.02;;
71462;SDS011;59266;52.608;13.260;2023-12-07T09:37:57;41.67;;;14.25;;
71462;SDS011;59266;52.608;13.260;2023-12-07T09:40:24;41.00;;;13.18;;
71462;SDS011;59266;52.608;13.260;2023-12-07T09:42:51;38.22;;;13.52;;
71462;SDS011;59266;52.608;13.260;2023-12-07T09:45:19;45.70;;;13.95;;
71462;SDS011;59266;52.608;13.260;2023-12-07T09:47:50;50.35;;;14.02;;
71462;SDS011;59266;52.608;13.260;2023-12-07T09:50:19;45.70;;;14.35;;
71462;SDS011;59266;52.608;13.260;2023-12-07T09:52:50;45.10;;;13.65;;
71462;SDS011;59266;52.608;13.260;2023-12-07T09:55:30;42.92;;;15.07;;
71462;SDS011;59266;52.608;13.260;2023-12-07T09:57:57;42.33;;;14.25;;
71462;SDS011;59266;52.608;13.260;2023-12-07T10:00:24;42.90;;;13.65;;
71462;SDS011;59266;52.608;13.260;2023-12-07T10:02:52;40.97;;;14.02;;
71462;SDS011;59266;52.608;13.260;2023-12-07T10:05:20;38.83;;;14.32;;
71462;SDS011;59266;52.608;13.260;2023-12-07T10:07:48;42.33;;;14.13;;
71462;SDS011;59266;52.608;13.260;2023-12-07T10:10:16;43.50;;;13.98;;
71462;SDS011;59266;52.608;13.260;2023-12-07T10:12:45;46.90;;;14.23;;
71462;SDS011;59266;52.608;13.260;2023-12-07T10:15:15;41.53;;;13.88;;
71462;SDS011;59266;52.608;13.260;2023-12-07T10:17:45;45.50;;;13.57;;
71462;SDS011;59266;52.608;13.260;2023-12-07T10:20:20;41.13;;;14.10;;
71462;SDS011;59266;52.608;13.260;2023-12-07T10:23:05;41.45;;;14.25;;
71462;SDS011;59266;52.608;13.260;2023-12-07T10:25:36;37.55;;;12.60;;
71462;SDS011;59266;52.608;13.260;2023-12-07T10:28:04;37.00;;;13.57;;
71462;SDS011;59266;52.608;13.260;2023-12-07T10:30:34;42.83;;;14.43;;
71462;SDS011;59266;52.608;13.260;2023-12-07T10:33:04;41.08;;;13.80;;
71462;SDS011;59266;52.608;13.260;2023-12-07T10:35:37;38.58;;;13.05;;
71462;SDS011;59266;52.608;13.260;2023-12-07T10:40:39;35.38;;;12.05;;
71462;SDS011;59266;52.608;13.260;2023-12-07T10:43:06;37.08;;;12.85;;
71462;SDS011;59266;52.608;13.260;2023-12-07T10:45:34;38.90;;;13.07;;
71462;SDS011;59266;52.608;13.260;2023-12-07T10:48:06;40.33;;;13.48;;
71462;SDS011;59266;52.608;13.260;2023-12-07T10:50:36;39.13;;;13.90;;
71462;SDS011;59266;52.608;13.260;2023-12-07T10:53:09;47.15;;;14.95;;
71462;SDS011;59266;52.608;13.260;2023-12-07T10:55:47;41.10;;;13.60;;
71462;SDS011;59266;52.608;13.260;2023-12-07T10:58:18;39.83;;;13.65;;
71462;SDS011;59266;52.608;13.260;2023-12-07T11:00:46;35.45;;;12.25;;
71462;SDS011;59266;52.608;13.260;2023-12-07T11:03:15;37.63;;;12.63;;
71462;SDS011;59266;52.608;13.260;2023-12-07T11:05:46;39.80;;;14.25;;
71462;SDS011;59266;52.608;13.260;2023-12-07T11:09:00;36.22;;;13.63;;
71462;SDS011;59266;52.608;13.260;2023-12-07T11:11:05;46.13;;;14.18;;
71462;SDS011;59266;52.608;13.260;2023-12-07T11:16:28;39.58;;;12.30;;
71462;SDS011;59266;52.608;13.260;2023-12-07T11:18:55;42.35;;;17.40;;
71462;SDS011;59266;52.608;13.260;2023-12-07T11:24:07;43.55;;;15.10;;
71462;SDS011;59266;52.608;13.260;2023-12-07T11:26:33;34.08;;;12.93;;
71462;SDS011;59266;52.608;13.260;2023-12-07T11:29:06;38.72;;;14.45;;
71462;SDS011;59266;52.608;13.260;2023-12-07T11:31:36;50.55;;;16.45;;
71462;SDS011;59266;52.608;13.260;2023-12-07T11:34:06;39.28;;;13.10;;
71462;SDS011;59266;52.608;13.260;2023-12-07T11:36:34;43.15;;;15.20;;
71462;SDS011;59266;52.608;13.260;2023-12-07T11:44:17;55.00;;;18.23;;
71462;SDS011;59266;52.608;13.260;2023-12-07T11:46:43;47.55;;;18.13;;
71462;SDS011;59266;52.608;13.260;2023-12-07T11:49:11;52.67;;;20.45;;
71462;SDS011;59266;52.608;13.260;2023-12-07T11:55:44;39.47;;;13.40;;
71462;SDS011;59266;52.608;13.260;2023-12-07T11:58:12;38.47;;;13.45;;
71462;SDS011;59266;52.608;13.260;2023-12-07T12:00:39;49.33;;;14.45;;
71462;SDS011;59266;52.608;13.260;2023-12-07T12:03:06;44.83;;;14.95;;
71462;SDS011;59266;52.608;13.260;2023-12-07T12:05:32;42.60;;;13.40;;
71462;SDS011;59266;52.608;13.260;2023-12-07T12:07:59;43.83;;;15.02;;
71462;SDS011;59266;52.608;13.260;2023-12-07T12:10:26;39.45;;;13.10;;
71462;SDS011;59266;52.608;13.260;2023-12-07T12:12:53;50.72;;;16.85;;
71462;SDS011;59266;52.608;13.260;2023-12-07T12:15:21;45.15;;;14.40;;
71462;SDS011;59266;52.608;13.260;2023-12-07T12:17:48;44.00;;;14.32;;
71462;SDS011;59266;52.608;13.260;2023-12-07T12:20:15;45.50;;;15.05;;
71462;SDS011;59266;52.608;13.260;2023-12-07T12:22:44;42.38;;;15.48;;
71462;SDS011;59266;52.608;13.260;2023-12-07T12:25:13;42.28;;;13.35;;
71462;SDS011;59266;52.608;13.260;2023-12-07T12:27:40;43.80;;;14.90;;
71462;SDS011;59266;52.608;13.260;2023-12-07T12:30:07;48.17;;;17.08;;
71462;SDS011;59266;52.608;13.260;2023-12-07T12:32:43;52.53;;;16.02;;
71462;SDS011;59266;52.608;13.260;2023-12-07T12:35:11;49.78;;;16.75;;
71462;SDS011;59266;52.608;13.260;2023-12-07T12:37:40;44.20;;;15.88;;
71462;SDS011;59266;52.608;13.260;2023-12-07T12:40:10;48.35;;;15.52;;
71462;SDS011;59266;52.608;13.260;2023-12-07T12:42:37;46.70;;;15.40;;
71462;SDS011;59266;52.608;13.260;2023-12-07T12:45:10;44.75;;;14.43;;
71462;SDS011;59266;52.608;13.260;2023-12-07T12:47:40;49.38;;;15.98;;
71462;SDS011;59266;52.608;13.260;2023-12-07T12:50:08;51.92;;;15.82;;
71462;SDS011;59266;52.608;13.260;2023-12-07T12:52:35;51.15;;;16.10;;
71462;SDS011;59266;52.608;13.260;2023-12-07T12:55:06;50.20;;;16.83;;
71462;SDS011;59266;52.608;13.260;2023-12-07T12:57:33;57.25;;;16.60;;
71462;SDS011;59266;52.608;13.260;2023-12-07T13:00:02;47.10;;;15.80;;
71462;SDS011;59266;52.608;13.260;2023-12-07T13:02:29;48.08;;;15.90;;
71462;SDS011;59266;52.608;13.260;2023-12-07T13:04:55;46.67;;;15.77;;
71462;SDS011;59266;52.608;13.260;2023-12-07T13:07:25;50.10;;;16.58;;
71462;SDS011;59266;52.608;13.260;2023-12-07T13:09:52;50.03;;;15.93;;
71462;SDS011;59266;52.608;13.260;2023-12-07T13:12:19;56.63;;;17.20;;
71462;SDS011;59266;52.608;13.260;2023-12-07T13:14:46;53.70;;;16.48;;
71462;SDS011;59266;52.608;13.260;2023-12-07T13:17:15;48.88;;;16.67;;
71462;SDS011;59266;52.608;13.260;2023-12-07T13:19:42;54.95;;;17.27;;
71462;SDS011;59266;52.608;13.260;2023-12-07T13:26:00;60.88;;;17.50;;
71462;SDS011;59266;52.608;13.260;2023-12-07T13:28:26;58.67;;;17.45;;
71462;SDS011;59266;52.608;13.260;2023-12-07T13:30:53;54.20;;;17.75;;
71462;SDS011;59266;52.608;13.260;2023-12-07T13:33:20;58.08;;;16.73;;
71462;SDS011;59266;52.608;13.260;2023-12-07T13:35:55;67.10;;;17.30;;
71462;SDS011;59266;52.608;13.260;2023-12-07T13:38:23;62.90;;;17.58;;
71462;SDS011;59266;52.608;13.260;2023-12-07T13:40:50;58.85;;;18.60;;
71462;SDS011;59266;52.608;13.260;2023-12-07T13:43:17;66.50;;;18.63;;
71462;SDS011;59266;52.608;13.260;2023-12-07T13:45:44;62.50;;;17.65;;
71462;SDS011;59266;52.608;13.260;2023-12-07T13:48:11;59.85;;;17.23;;
71462;SDS011;59266;52.608;13.260;2023-12-07T13:54:32;58.53;;;19.25;;
71462;SDS011;59266;52.608;13.260;2023-12-07T13:57:18;52.40;;;16.15;;
71462;SDS011;59266;52.608;13.260;2023-12-07T13:59:46;69.07;;;18.35;;
71462;SDS011;59266;52.608;13.260;2023-12-07T14:02:13;68.20;;;17.50;;
71462;SDS011;59266;52.608;13.260;2023-12-07T14:04:41;84.38;;;19.05;;
71462;SDS011;59266;52.608;13.260;2023-12-07T14:09:36;76.05;;;18.20;;
71462;SDS011;59266;52.608;13.260;2023-12-07T14:12:18;87.38;;;18.83;;
71462;SDS011;59266;52.608;13.260;2023-12-07T14:14:45;68.97;;;18.85;;
71462;SDS011;59266;52.608;13.260;2023-12-07T14:17:13;72.05;;;19.25;;
71462;SDS011;59266;52.608;13.260;2023-12-07T14:19:41;85.55;;;19.85;;
71462;SDS011;59266;52.608;13.260;2023-12-07T14:32:36;87.40;;;19.60;;
71462;SDS011;59266;52.608;13.260;2023-12-07T14:35:03;79.70;;;19.13;;
71462;SDS011;59266;52.608;13.260;2023-12-07T14:37:30;100.30;;;20.55;;
71462;SDS011;59266;52.608;13.260;2023-12-07T14:39:57;113.25;;;20.65;;
71462;SDS011;59266;52.608;13.260;2023-12-07T14:42:24;117.30;;;20.85;;
71462;SDS011;59266;52.608;13.260;2023-12-07T14:44:50;96.28;;;20.63;;
71462;SDS011;59266;52.608;13.260;2023-12-07T14:47:17;155.68;;;23.92;;
71462;SDS011;59266;52.608;13.260;2023-12-07T14:49:43;107.85;;;19.70;;
71462;SDS011;59266;52.608;13.260;2023-12-07T14:52:11;95.95;;;20.98;;
71462;SDS011;59266;52.608;13.260;2023-12-07T14:54:38;89.40;;;18.25;;
71462;SDS011;59266;52.608;13.260;2023-12-07T14:57:08;130.73;;;19.85;;
71462;SDS011;59266;52.608;13.260;2023-12-07T14:59:35;111.55;;;20.17;;
71462;SDS011;59266;52.608;13.260;2023-12-07T15:02:02;266.10;;;23.73;;
71462;SDS011;59266;52.608;13.260;2023-12-07T15:04:28;326.70;;;25.15;;
71462;SDS011;59266;52.608;13.260;2023-12-07T15:07:00;143.65;;;21.73;;
71462;SDS011;59266;52.608;13.260;2023-12-07T15:09:27;114.28;;;19.83;;